createdAt,value
2018-09-17T00:00:44.720Z,15.46
2018-09-17T00:01:44.688Z,15.46
2018-09-17T00:02:44.661Z,15.64
2018-09-17T00:03:44.632Z,15.60
2018-09-17T00:04:45.178Z,15.63
2018-09-17T00:05:44.576Z,15.59
2018-09-17T00:06:44.547Z,15.54
2018-09-17T00:07:44.520Z,15.61
2018-09-17T00:08:44.493Z,15.59
2018-09-17T00:09:44.465Z,15.61
2018-09-17T00:10:44.440Z,15.56
2018-09-17T00:11:44.407Z,15.49
2018-09-17T00:12:44.380Z,15.60
2018-09-17T00:13:44.351Z,15.51
2018-09-17T00:14:44.323Z,15.48
2018-09-17T00:15:44.296Z,15.49
2018-09-17T00:16:44.268Z,15.41
2018-09-17T00:17:44.239Z,15.49
2018-09-17T00:18:44.210Z,15.46
2018-09-17T00:19:44.182Z,15.42
2018-09-17T00:20:44.154Z,15.33
2018-09-17T00:21:44.127Z,15.33
2018-09-17T00:22:44.097Z,15.39
2018-09-17T00:23:44.070Z,15.27
2018-09-17T00:24:44.042Z,15.19
2018-09-17T00:25:44.015Z,15.17
2018-09-17T00:26:43.984Z,15.09
2018-09-17T00:27:43.958Z,15.12
2018-09-17T00:28:43.930Z,15.08
2018-09-17T00:29:43.901Z,15.06
2018-09-17T00:30:43.873Z,14.93
2018-09-17T00:31:43.845Z,14.98
2018-09-17T00:32:43.816Z,14.88
2018-09-17T00:33:43.787Z,14.74
2018-09-17T00:34:43.762Z,14.80
2018-09-17T00:35:43.732Z,14.67
2018-09-17T00:36:43.707Z,14.67
2018-09-17T00:37:43.675Z,14.64
2018-09-17T00:38:43.646Z,14.64
2018-09-17T00:39:43.618Z,14.54
2018-09-17T00:40:43.591Z,14.60
2018-09-17T00:41:43.561Z,14.54
2018-09-17T00:42:43.533Z,14.47
2018-09-17T00:43:43.507Z,14.47
2018-09-17T00:44:43.477Z,14.43
2018-09-17T00:45:43.449Z,14.46
2018-09-17T00:46:43.426Z,14.38
2018-09-17T00:47:43.394Z,14.31
2018-09-17T00:48:43.365Z,14.28
2018-09-17T00:49:43.334Z,14.16
2018-09-17T00:50:43.305Z,14.14
2018-09-17T00:51:43.277Z,14.19
2018-09-17T00:52:43.247Z,14.17
2018-09-17T00:53:43.220Z,14.25
2018-09-17T00:54:43.191Z,14.20
2018-09-17T00:55:43.163Z,14.24
2018-09-17T00:56:43.133Z,14.16
2018-09-17T00:57:43.117Z,14.20
2018-09-17T00:58:43.076Z,14.17
2018-09-17T00:59:43.048Z,14.16
2018-09-17T01:00:43.020Z,14.19
2018-09-17T01:01:42.992Z,14.24
2018-09-17T01:02:42.962Z,14.20
2018-09-17T01:03:42.934Z,14.17
2018-09-17T01:04:42.905Z,14.29
2018-09-17T01:05:42.876Z,14.19
2018-09-17T01:06:42.847Z,14.21
2018-09-17T01:07:42.818Z,14.16
2018-09-17T01:08:42.791Z,14.16
2018-09-17T01:09:42.763Z,14.19
2018-09-17T01:10:42.732Z,14.17
2018-09-17T01:11:42.704Z,14.17
2018-09-17T01:12:42.676Z,14.25
2018-09-17T01:13:42.646Z,14.25
2018-09-17T01:14:42.618Z,14.28
2018-09-17T01:15:42.588Z,14.31
2018-09-17T01:16:42.562Z,14.31
2018-09-17T01:17:42.533Z,14.29
2018-09-17T01:18:42.503Z,14.29
2018-09-17T01:19:42.473Z,14.28
2018-09-17T01:20:42.447Z,14.27
2018-09-17T01:21:42.418Z,14.17
2018-09-17T01:22:42.391Z,14.16
2018-09-17T01:23:42.359Z,14.27
2018-09-17T01:24:42.330Z,14.31
2018-09-17T01:25:42.301Z,14.35
2018-09-17T01:26:42.273Z,14.46
2018-09-17T01:27:42.245Z,14.39
2018-09-17T01:28:42.216Z,14.43
2018-09-17T01:29:42.189Z,14.57
2018-09-17T01:30:42.159Z,14.53
2018-09-17T01:31:42.128Z,14.65
2018-09-17T01:32:42.102Z,14.74
2018-09-17T01:33:42.072Z,14.72
2018-09-17T01:34:42.063Z,14.67
2018-09-17T01:35:42.016Z,14.68
2018-09-17T01:36:41.987Z,14.67
2018-09-17T01:37:41.958Z,14.72
2018-09-17T01:38:41.928Z,14.78
2018-09-17T01:39:41.899Z,14.74
2018-09-17T01:40:41.873Z,14.74
2018-09-17T01:41:41.843Z,14.81
2018-09-17T01:42:41.817Z,14.75
2018-09-17T01:43:41.787Z,14.75
2018-09-17T01:44:41.758Z,14.78
2018-09-17T01:45:41.729Z,14.71
2018-09-17T01:46:41.700Z,14.78
2018-09-17T01:47:41.673Z,14.80
2018-09-17T01:48:41.644Z,14.78
2018-09-17T01:49:41.619Z,14.80
2018-09-17T01:50:41.589Z,14.84
2018-09-17T01:51:41.558Z,14.87
2018-09-17T01:52:41.532Z,14.83
2018-09-17T01:53:41.502Z,14.88
2018-09-17T01:54:41.474Z,14.74
2018-09-17T01:55:41.446Z,14.95
2018-09-17T01:56:41.417Z,14.91
2018-09-17T01:57:41.392Z,14.91
2018-09-17T01:58:41.361Z,14.98
2018-09-17T01:59:41.332Z,14.98
2018-09-17T02:00:41.306Z,15.02
2018-09-17T02:01:41.280Z,15.01
2018-09-17T02:02:41.246Z,14.98
2018-09-17T02:03:41.218Z,15.06
2018-09-17T02:04:41.192Z,15.01
2018-09-17T02:05:41.163Z,15.03
2018-09-17T02:06:41.136Z,15.03
2018-09-17T02:07:41.106Z,14.99
2018-09-17T02:08:41.138Z,14.91
2018-09-17T02:09:41.056Z,14.94
2018-09-17T02:10:41.022Z,14.90
2018-09-17T02:11:40.995Z,14.98
2018-09-17T02:12:40.966Z,14.90
2018-09-17T02:13:40.938Z,14.91
2018-09-17T02:14:40.908Z,14.93
2018-09-17T02:15:40.880Z,14.88
2018-09-17T02:16:40.853Z,14.84
2018-09-17T02:17:40.825Z,14.81
2018-09-17T02:18:40.795Z,14.72
2018-09-17T02:19:40.766Z,14.72
2018-09-17T02:20:40.738Z,14.81
2018-09-17T02:21:40.712Z,14.68
2018-09-17T02:22:40.682Z,14.68
2018-09-17T02:23:40.655Z,14.62
2018-09-17T02:24:40.625Z,14.67
2018-09-17T02:25:40.599Z,14.64
2018-09-17T02:26:40.574Z,14.62
2018-09-17T02:27:40.544Z,14.62
2018-09-17T02:28:40.512Z,14.67
2018-09-17T02:29:40.485Z,14.61
2018-09-17T02:30:40.459Z,14.62
2018-09-17T02:31:40.429Z,14.61
2018-09-17T02:32:40.401Z,14.67
2018-09-17T02:33:40.372Z,14.64
2018-09-17T02:34:40.347Z,14.68
2018-09-17T02:35:40.314Z,14.68
2018-09-17T02:36:40.292Z,14.69
2018-09-17T02:37:40.259Z,14.69
2018-09-17T02:38:40.233Z,14.65
2018-09-17T02:39:40.203Z,14.69
2018-09-17T02:40:40.171Z,14.67
2018-09-17T02:41:40.143Z,14.67
2018-09-17T02:42:40.117Z,14.68
2018-09-17T02:43:40.091Z,14.68
2018-09-17T02:44:40.058Z,14.53
2018-09-17T02:45:40.030Z,14.61
2018-09-17T02:46:40.009Z,14.61
2018-09-17T02:47:39.972Z,14.54
2018-09-17T02:48:40.704Z,14.54
2018-09-17T02:49:39.918Z,14.56
2018-09-17T02:50:39.887Z,14.52
2018-09-17T02:51:39.860Z,14.57
2018-09-17T02:52:39.832Z,14.54
2018-09-17T02:53:39.908Z,14.50
2018-09-17T02:54:39.774Z,14.53
2018-09-17T02:55:39.747Z,14.46
2018-09-17T02:56:39.717Z,14.43
2018-09-17T02:57:39.690Z,14.38
2018-09-17T02:58:39.661Z,14.29
2018-09-17T02:59:39.633Z,14.31
2018-09-17T03:00:39.606Z,14.19
2018-09-17T03:01:39.575Z,14.19
2018-09-17T03:02:39.546Z,14.21
2018-09-17T03:03:39.518Z,14.14
2018-09-17T03:04:39.490Z,14.24
2018-09-17T03:05:39.462Z,14.17
2018-09-17T03:06:39.432Z,14.10
2018-09-17T03:07:39.404Z,14.10
2018-09-17T03:08:39.377Z,14.10
2018-09-17T03:09:39.347Z,14.10
2018-09-17T03:10:39.317Z,14.02
2018-09-17T03:11:39.290Z,13.98
2018-09-17T03:12:39.262Z,14.04
2018-09-17T03:13:39.233Z,13.96
2018-09-17T03:14:39.205Z,13.98
2018-09-17T03:15:39.174Z,13.96
2018-09-17T03:16:39.147Z,13.99
2018-09-17T03:17:39.119Z,14.13
2018-09-17T03:18:39.098Z,14.14
2018-09-17T03:19:39.060Z,14.10
2018-09-17T03:20:39.051Z,14.01
2018-09-17T03:21:39.006Z,14.09
2018-09-17T03:22:38.972Z,13.96
2018-09-17T03:23:38.944Z,13.99
2018-09-17T03:24:38.944Z,13.99
2018-09-17T03:25:38.888Z,13.96
2018-09-17T03:26:38.861Z,13.88
2018-09-17T03:27:38.830Z,13.80
2018-09-17T03:28:38.800Z,13.81
2018-09-17T03:29:38.772Z,13.84
2018-09-17T03:30:38.744Z,13.83
2018-09-17T03:31:38.717Z,13.80
2018-09-17T03:32:38.691Z,13.79
2018-09-17T03:33:38.660Z,13.88
2018-09-17T03:34:38.626Z,13.81
2018-09-17T03:35:38.598Z,13.83
2018-09-17T03:36:38.573Z,13.80
2018-09-17T03:37:38.543Z,13.80
2018-09-17T03:38:38.515Z,13.89
2018-09-17T03:39:38.483Z,14.01
2018-09-17T03:40:38.457Z,13.99
2018-09-17T03:41:38.430Z,13.96
2018-09-17T03:42:38.398Z,14.06
2018-09-17T03:43:38.366Z,14.07
2018-09-17T03:44:38.339Z,14.17
2018-09-17T03:45:38.310Z,14.13
2018-09-17T03:46:38.318Z,14.13
2018-09-17T03:47:38.254Z,14.16
2018-09-17T03:48:38.224Z,14.09
2018-09-17T03:49:38.195Z,14.09
2018-09-17T03:50:38.164Z,14.06
2018-09-17T03:51:38.136Z,14.06
2018-09-17T03:52:38.109Z,14.01
2018-09-17T03:53:38.078Z,13.99
2018-09-17T03:54:38.050Z,14.01
2018-09-17T03:55:38.021Z,14.02
2018-09-17T03:56:37.992Z,14.01
2018-09-17T03:57:37.965Z,14.01
2018-09-17T03:58:37.933Z,14.02
2018-09-17T03:59:37.905Z,13.98
2018-09-17T04:00:37.877Z,13.99
2018-09-17T04:01:37.897Z,13.96
2018-09-17T04:02:37.816Z,14.01
2018-09-17T04:03:37.789Z,13.98
2018-09-17T04:04:37.761Z,13.98
2018-09-17T04:05:37.731Z,13.94
2018-09-17T04:06:37.698Z,13.84
2018-09-17T04:07:37.672Z,13.79
2018-09-17T04:08:37.647Z,13.80
2018-09-17T04:09:37.615Z,13.88
2018-09-17T04:10:37.584Z,13.84
2018-09-17T04:11:37.556Z,13.84
2018-09-17T04:12:37.530Z,13.89
2018-09-17T04:13:37.500Z,13.94
2018-09-17T04:14:37.478Z,13.95
2018-09-17T04:15:37.444Z,13.95
2018-09-17T04:16:37.416Z,13.94
2018-09-17T04:17:37.384Z,13.94
2018-09-17T04:18:37.355Z,13.88
2018-09-17T04:19:37.327Z,13.81
2018-09-17T04:20:37.299Z,13.80
2018-09-17T04:21:37.271Z,13.81
2018-09-17T04:22:37.238Z,13.79
2018-09-17T04:23:37.214Z,13.70
2018-09-17T04:24:37.181Z,13.69
2018-09-17T04:25:37.150Z,13.81
2018-09-17T04:26:37.122Z,13.74
2018-09-17T04:27:37.092Z,13.65
2018-09-17T04:28:37.064Z,13.70
2018-09-17T04:29:37.035Z,13.67
2018-09-17T04:30:37.007Z,13.67
2018-09-17T04:31:37.041Z,13.69
2018-09-17T04:32:36.947Z,13.65
2018-09-17T04:33:36.920Z,13.65
2018-09-17T04:34:36.889Z,13.69
2018-09-17T04:35:36.860Z,13.69
2018-09-17T04:36:36.831Z,13.63
2018-09-17T04:37:36.803Z,13.63
2018-09-17T04:38:36.773Z,13.54
2018-09-17T04:39:36.770Z,13.65
2018-09-17T04:40:36.716Z,13.59
2018-09-17T04:41:36.687Z,13.55
2018-09-17T04:42:36.659Z,13.55
2018-09-17T04:43:36.632Z,13.59
2018-09-17T04:44:36.599Z,13.54
2018-09-17T04:45:36.571Z,13.46
2018-09-17T04:46:36.543Z,13.46
2018-09-17T04:47:36.512Z,13.41
2018-09-17T04:48:36.482Z,13.44
2018-09-17T04:49:36.454Z,13.46
2018-09-17T04:50:36.424Z,13.51
2018-09-17T04:51:36.395Z,13.47
2018-09-17T04:52:36.366Z,13.46
2018-09-17T04:53:36.337Z,13.44
2018-09-17T04:54:36.307Z,13.43
2018-09-17T04:55:36.277Z,13.56
2018-09-17T04:56:36.249Z,13.49
2018-09-17T04:57:36.219Z,13.61
2018-09-17T04:58:36.190Z,13.51
2018-09-17T04:59:36.161Z,13.55
2018-09-17T05:00:43.552Z,13.56
2018-09-17T05:02:28.959Z,13.56
2018-09-17T05:03:28.905Z,13.55
2018-09-17T05:05:21.712Z,13.49
2018-09-17T05:06:21.680Z,13.55
2018-09-17T05:08:15.002Z,13.52
2018-09-17T05:09:14.948Z,13.55
2018-09-17T05:11:08.070Z,13.44
2018-09-17T05:12:08.014Z,13.54
2018-09-17T05:14:00.854Z,13.46
2018-09-17T05:15:00.845Z,13.47
2018-09-17T05:16:54.089Z,13.37
2018-09-17T05:17:54.059Z,13.43
2018-09-17T05:19:47.183Z,13.36
2018-09-17T05:20:47.183Z,13.36
2018-09-17T05:22:40.425Z,13.33
2018-09-17T05:23:40.393Z,13.47
2018-09-17T05:25:33.227Z,13.47
2018-09-17T05:26:33.166Z,13.46
2018-09-17T05:28:25.995Z,13.59
2018-09-17T05:29:25.941Z,13.59
2018-09-17T05:31:18.751Z,13.56
2018-09-17T05:32:18.717Z,13.67
2018-09-17T05:34:12.039Z,13.74
2018-09-17T05:35:12.021Z,13.77
2018-09-17T05:36:11.952Z,13.79
2018-09-17T05:37:11.928Z,13.98
2018-09-17T05:38:11.895Z,13.95
2018-09-17T05:39:11.868Z,13.99
2018-09-17T05:40:11.838Z,14.12
2018-09-17T05:41:11.808Z,14.19
2018-09-17T05:42:11.781Z,14.17
2018-09-17T05:43:11.753Z,14.13
2018-09-17T05:44:11.720Z,14.28
2018-09-17T05:45:11.693Z,14.32
2018-09-17T05:46:11.667Z,14.24
2018-09-17T05:47:11.636Z,14.38
2018-09-17T05:48:11.606Z,14.38
2018-09-17T05:49:11.582Z,14.37
2018-09-17T05:50:11.548Z,14.43
2018-09-17T05:51:11.524Z,14.38
2018-09-17T05:52:11.494Z,14.53
2018-09-17T05:53:11.566Z,14.54
2018-09-17T05:54:11.432Z,14.56
2018-09-17T05:55:11.408Z,14.57
2018-09-17T05:56:11.377Z,14.67
2018-09-17T05:57:11.351Z,14.74
2018-09-17T05:58:11.321Z,14.71
2018-09-17T05:59:11.292Z,14.74
2018-09-17T06:00:11.270Z,14.93
2018-09-17T06:01:11.235Z,14.88
2018-09-17T06:02:11.262Z,15.09
2018-09-17T06:03:11.184Z,15.08
2018-09-17T06:04:11.150Z,15.24
2018-09-17T06:05:11.123Z,15.38
2018-09-17T06:06:11.095Z,15.33
2018-09-17T06:07:11.186Z,15.33
2018-09-17T06:08:11.037Z,15.48
2018-09-17T06:09:11.012Z,15.48
2018-09-17T06:10:10.984Z,15.66
2018-09-17T06:11:10.954Z,15.74
2018-09-17T06:12:10.939Z,15.78
2018-09-17T06:13:10.896Z,15.85
2018-09-17T06:14:10.871Z,15.96
2018-09-17T06:15:10.844Z,16.01
2018-09-17T06:16:10.814Z,16.09
2018-09-17T06:17:10.791Z,16.15
2018-09-17T06:18:10.760Z,16.15
2018-09-17T06:19:10.733Z,16.18
2018-09-17T06:20:10.704Z,16.34
2018-09-17T06:21:10.677Z,16.42
2018-09-17T06:22:10.709Z,16.53
2018-09-17T06:23:10.645Z,16.58
2018-09-17T06:24:10.596Z,16.60
2018-09-17T06:25:10.570Z,16.63
2018-09-17T06:26:10.542Z,16.74
2018-09-17T06:27:10.515Z,16.92
2018-09-17T06:28:10.486Z,17.03
2018-09-17T06:29:10.460Z,17.06
2018-09-17T06:30:10.441Z,17.06
2018-09-17T06:31:10.408Z,17.06
2018-09-17T06:32:10.429Z,17.17
2018-09-17T06:33:10.354Z,17.15
2018-09-17T06:34:10.330Z,17.25
2018-09-17T06:35:10.306Z,17.29
2018-09-17T06:36:10.331Z,17.32
2018-09-17T06:37:10.248Z,17.47
2018-09-17T06:38:10.228Z,17.50
2018-09-17T06:39:10.201Z,17.53
2018-09-17T06:40:10.170Z,17.59
2018-09-17T06:41:10.145Z,17.57
2018-09-17T06:42:10.122Z,17.63
2018-09-17T06:43:10.091Z,17.63
2018-09-17T06:44:10.067Z,17.70
2018-09-17T06:45:10.061Z,17.69
2018-09-17T06:46:10.028Z,17.82
2018-09-17T06:47:09.986Z,17.85
2018-09-17T06:48:09.985Z,17.91
2018-09-17T06:49:09.936Z,17.91
2018-09-17T06:50:09.916Z,17.99
2018-09-17T06:51:09.887Z,18.10
2018-09-17T06:52:09.860Z,18.13
2018-09-17T06:53:09.836Z,18.07
2018-09-17T06:54:09.809Z,18.10
2018-09-17T06:55:09.784Z,18.06
2018-09-17T06:56:09.758Z,18.17
2018-09-17T06:57:09.733Z,18.22
2018-09-17T06:58:09.710Z,18.09
2018-09-17T06:59:09.682Z,18.15
2018-09-17T07:00:09.661Z,18.19
2018-09-17T07:01:09.632Z,18.12
2018-09-17T07:02:09.607Z,18.29
2018-09-17T07:03:09.581Z,18.29
2018-09-17T07:04:09.555Z,18.31
2018-09-17T07:05:09.532Z,18.31
2018-09-17T07:06:09.533Z,18.31
2018-09-17T07:07:09.481Z,18.29
2018-09-17T07:08:09.455Z,18.31
2018-09-17T07:09:09.430Z,18.44
2018-09-17T07:10:09.405Z,18.43
2018-09-17T07:11:09.382Z,18.46
2018-09-17T07:12:09.359Z,18.54
2018-09-17T07:13:09.332Z,18.65
2018-09-17T07:14:09.305Z,18.67
2018-09-17T07:15:09.294Z,18.65
2018-09-17T07:16:09.268Z,18.70
2018-09-17T07:17:09.231Z,18.67
2018-09-17T07:18:09.230Z,18.70
2018-09-17T07:19:09.189Z,18.73
2018-09-17T07:20:09.156Z,18.73
2018-09-17T07:21:09.134Z,18.73
2018-09-17T07:22:09.112Z,18.62
2018-09-17T07:23:09.084Z,18.70
2018-09-17T07:24:09.060Z,18.82
2018-09-17T07:25:09.035Z,18.77
2018-09-17T07:26:09.010Z,18.84
2018-09-17T07:27:08.986Z,18.87
2018-09-17T07:28:08.963Z,18.86
2018-09-17T07:29:08.937Z,18.87
2018-09-17T07:30:08.913Z,18.91
2018-09-17T07:31:08.889Z,18.98
2018-09-17T07:32:08.863Z,19.02
2018-09-17T07:33:08.841Z,19.17
2018-09-17T07:34:08.821Z,19.25
2018-09-17T07:35:08.794Z,19.25
2018-09-17T07:36:08.787Z,19.15
2018-09-17T07:37:08.744Z,19.10
2018-09-17T07:38:08.720Z,19.17
2018-09-17T07:39:08.694Z,19.11
2018-09-17T07:40:08.668Z,18.95
2018-09-17T07:41:08.647Z,19.05
2018-09-17T07:42:08.716Z,19.20
2018-09-17T07:43:08.598Z,19.17
2018-09-17T07:44:08.575Z,19.24
2018-09-17T07:45:08.551Z,19.47
2018-09-17T07:46:08.527Z,19.47
2018-09-17T07:47:08.504Z,19.63
2018-09-17T07:48:08.487Z,19.66
2018-09-17T07:49:08.455Z,19.61
2018-09-17T07:50:08.434Z,19.70
2018-09-17T07:51:08.412Z,19.78
2018-09-17T07:52:08.382Z,19.76
2018-09-17T07:53:08.392Z,19.87
2018-09-17T07:54:08.336Z,19.78
2018-09-17T07:55:08.317Z,19.50
2018-09-17T07:56:08.316Z,19.65
2018-09-17T07:57:08.263Z,19.63
2018-09-17T07:58:08.251Z,19.63
2018-09-17T07:59:09.147Z,19.66
2018-09-17T08:00:08.196Z,19.69
2018-09-17T08:01:08.170Z,19.78
2018-09-17T08:02:08.145Z,19.86
2018-09-17T08:03:08.125Z,19.87
2018-09-17T08:04:08.098Z,19.93
2018-09-17T08:05:08.079Z,19.91
2018-09-17T08:06:08.055Z,20.06
2018-09-17T08:07:08.033Z,20.10
2018-09-17T08:08:08.007Z,20.20
2018-09-17T08:09:07.990Z,20.20
2018-09-17T08:10:07.959Z,20.23
2018-09-17T08:11:07.938Z,20.23
2018-09-17T08:12:07.913Z,20.28
2018-09-17T08:13:07.892Z,20.23
2018-09-17T08:14:07.869Z,20.20
2018-09-17T08:15:07.847Z,20.21
2018-09-17T08:16:07.826Z,20.23
2018-09-17T08:17:07.933Z,20.31
2018-09-17T08:18:07.778Z,20.25
2018-09-17T08:19:07.755Z,20.33
2018-09-17T08:20:07.730Z,20.28
2018-09-17T08:21:07.725Z,20.31
2018-09-17T08:22:07.690Z,20.28
2018-09-17T08:23:07.663Z,20.31
2018-09-17T08:24:07.640Z,20.24
2018-09-17T08:25:07.618Z,20.23
2018-09-17T08:26:07.601Z,20.33
2018-09-17T08:27:07.571Z,20.24
2018-09-17T08:28:07.553Z,20.28
2018-09-17T08:29:07.526Z,20.31
2018-09-17T08:30:07.505Z,20.34
2018-09-17T08:31:07.498Z,20.34
2018-09-17T08:32:07.454Z,20.35
2018-09-17T08:33:07.436Z,20.41
2018-09-17T08:34:07.413Z,20.47
2018-09-17T08:35:07.390Z,20.51
2018-09-17T08:36:07.367Z,20.53
2018-09-17T08:37:07.344Z,20.68
2018-09-17T08:38:07.341Z,20.65
2018-09-17T08:39:07.300Z,20.80
2018-09-17T08:40:07.275Z,20.86
2018-09-17T08:41:07.249Z,20.87
2018-09-17T08:42:07.231Z,20.95
2018-09-17T08:43:07.208Z,21.05
2018-09-17T08:44:07.192Z,21.09
2018-09-17T08:45:07.211Z,21.20
2018-09-17T08:46:07.141Z,21.19
2018-09-17T08:47:07.117Z,21.13
2018-09-17T08:48:07.089Z,21.19
2018-09-17T08:49:07.072Z,21.30
2018-09-17T08:50:07.053Z,21.32
2018-09-17T08:51:07.029Z,21.51
2018-09-17T08:52:07.023Z,21.50
2018-09-17T08:53:07.018Z,21.69
2018-09-17T08:54:06.967Z,21.61
2018-09-17T08:55:06.938Z,21.66
2018-09-17T08:56:06.919Z,21.61
2018-09-17T08:57:06.897Z,21.66
2018-09-17T08:58:06.890Z,21.71
2018-09-17T08:59:06.856Z,21.69
2018-09-17T09:00:06.834Z,21.60
2018-09-17T09:01:06.810Z,21.69
2018-09-17T09:02:06.790Z,21.67
2018-09-17T09:03:06.768Z,21.72
2018-09-17T09:04:06.808Z,21.81
2018-09-17T09:05:06.798Z,21.95
2018-09-17T09:06:06.705Z,22.14
2018-09-17T09:07:06.785Z,22.20
2018-09-17T09:08:06.681Z,22.23
2018-09-17T09:09:06.639Z,22.29
2018-09-17T09:10:06.620Z,22.47
2018-09-17T09:11:06.599Z,22.35
2018-09-17T09:12:06.571Z,22.43
2018-09-17T09:13:06.563Z,22.47
2018-09-17T09:14:06.536Z,22.65
2018-09-17T09:15:06.529Z,22.74
2018-09-17T09:16:06.495Z,22.65
2018-09-17T09:17:06.478Z,22.65
2018-09-17T09:18:06.451Z,22.54
2018-09-17T09:19:06.430Z,22.69
2018-09-17T09:20:06.407Z,22.80
2018-09-17T09:21:06.389Z,22.92
2018-09-17T09:22:06.366Z,23.01
2018-09-17T09:23:06.345Z,23.08
2018-09-17T09:24:06.326Z,23.05
2018-09-17T09:25:06.307Z,23.14
2018-09-17T09:26:06.315Z,23.17
2018-09-17T09:27:06.266Z,23.38
2018-09-17T09:28:06.243Z,23.47
2018-09-17T09:29:06.222Z,23.55
2018-09-17T09:30:06.204Z,23.47
2018-09-17T09:31:06.190Z,23.49
2018-09-17T09:32:06.164Z,23.39
2018-09-17T09:33:06.143Z,23.40
2018-09-17T09:34:06.123Z,23.34
2018-09-17T09:35:06.105Z,23.38
2018-09-17T09:36:06.086Z,23.23
2018-09-17T09:37:06.057Z,23.24
2018-09-17T09:38:06.096Z,23.20
2018-09-17T09:39:06.024Z,23.09
2018-09-17T09:40:06.004Z,23.12
2018-09-17T09:41:05.987Z,23.12
2018-09-17T09:42:05.961Z,23.15
2018-09-17T09:43:05.942Z,23.19
2018-09-17T09:44:05.923Z,23.22
2018-09-17T09:45:05.901Z,23.34
2018-09-17T09:46:05.888Z,23.43
2018-09-17T09:47:05.867Z,23.52
2018-09-17T09:48:05.840Z,23.53
2018-09-17T09:49:05.822Z,23.60
2018-09-17T09:50:05.802Z,23.71
2018-09-17T09:51:05.784Z,23.70
2018-09-17T09:52:05.761Z,23.67
2018-09-17T09:53:05.745Z,23.71
2018-09-17T09:54:05.722Z,23.62
2018-09-17T09:55:05.702Z,23.58
2018-09-17T09:56:05.686Z,23.52
2018-09-17T09:57:05.661Z,23.61
2018-09-17T09:58:05.642Z,23.64
2018-09-17T09:59:05.620Z,23.83
2018-09-17T10:00:05.604Z,23.79
2018-09-17T10:01:05.583Z,24.04
2018-09-17T10:02:05.562Z,24.10
2018-09-17T10:03:05.542Z,24.05
2018-09-17T10:04:05.523Z,24.07
2018-09-17T10:05:05.504Z,23.97
2018-09-17T10:06:05.482Z,23.92
2018-09-17T10:07:05.465Z,23.86
2018-09-17T10:08:05.446Z,23.86
2018-09-17T10:09:05.425Z,23.95
2018-09-17T10:10:05.405Z,24.01
2018-09-17T10:11:05.386Z,24.13
2018-09-17T10:12:05.366Z,24.04
2018-09-17T10:13:05.350Z,24.13
2018-09-17T10:14:05.327Z,24.13
2018-09-17T10:15:05.310Z,24.10
2018-09-17T10:16:05.286Z,24.17
2018-09-17T10:17:05.269Z,24.19
2018-09-17T10:18:05.248Z,24.38
2018-09-17T10:19:05.230Z,24.45
2018-09-17T10:20:05.208Z,24.60
2018-09-17T10:21:05.189Z,24.73
2018-09-17T10:22:05.171Z,24.76
2018-09-17T10:23:05.157Z,24.87
2018-09-17T10:24:05.133Z,25.05
2018-09-17T10:25:05.110Z,25.10
2018-09-17T10:26:05.103Z,25.25
2018-09-17T10:27:05.101Z,25.10
2018-09-17T10:28:05.054Z,25.10
2018-09-17T10:29:05.035Z,25.02
2018-09-17T10:30:05.017Z,25.15
2018-09-17T10:31:04.997Z,25.22
2018-09-17T10:32:04.979Z,25.20
2018-09-17T10:33:04.957Z,25.31
2018-09-17T10:34:04.944Z,25.28
2018-09-17T10:35:04.921Z,25.28
2018-09-17T10:36:13.231Z,25.35
2018-09-17T10:37:58.244Z,25.39
2018-09-17T10:38:58.537Z,25.39
2018-09-17T10:40:52.237Z,25.53
2018-09-17T10:41:52.202Z,25.62
2018-09-17T10:43:45.658Z,25.32
2018-09-17T10:44:45.322Z,25.38
2018-09-17T10:45:45.292Z,25.37
2018-09-17T10:46:45.270Z,25.47
2018-09-17T10:47:45.256Z,25.52
2018-09-17T10:48:45.231Z,25.62
2018-09-17T10:49:45.224Z,25.62
2018-09-17T10:50:45.193Z,25.71
2018-09-17T10:51:45.185Z,25.72
2018-09-17T10:52:45.161Z,25.68
2018-09-17T10:53:45.155Z,25.74
2018-09-17T10:54:45.121Z,25.80
2018-09-17T10:55:45.114Z,25.86
2018-09-17T10:56:45.088Z,25.89
2018-09-17T10:57:45.079Z,25.89
2018-09-17T10:58:45.073Z,25.87
2018-09-17T10:59:45.033Z,25.93
2018-09-17T11:00:45.016Z,26.04
2018-09-17T11:01:45.001Z,26.08
2018-09-17T11:02:44.978Z,26.06
2018-09-17T11:03:44.972Z,26.25
2018-09-17T11:04:46.634Z,26.36
2018-09-17T11:05:44.928Z,26.28
2018-09-17T11:06:44.944Z,26.17
2018-09-17T11:07:44.896Z,26.09
2018-09-17T11:08:46.629Z,26.15
2018-09-17T11:09:44.861Z,26.12
2018-09-17T11:10:44.832Z,25.98
2018-09-17T11:11:46.620Z,25.83
2018-09-17T11:12:44.795Z,25.84
2018-09-17T11:13:44.854Z,25.98
2018-09-17T11:14:46.620Z,25.98
2018-09-17T11:15:44.795Z,26.09
2018-09-17T11:16:44.749Z,26.08
2018-09-17T11:17:46.734Z,26.09
2018-09-17T11:18:44.716Z,26.11
2018-09-17T11:19:44.688Z,26.09
2018-09-17T11:20:44.676Z,26.05
2018-09-17T11:21:44.636Z,26.04
2018-09-17T11:22:44.633Z,26.04
2018-09-17T11:23:44.611Z,26.05
2018-09-17T11:24:44.601Z,26.02
2018-09-17T11:25:44.609Z,26.02
2018-09-17T11:26:44.556Z,26.12
2018-09-17T11:27:46.134Z,25.93
2018-09-17T11:28:44.525Z,25.84
2018-09-17T11:29:44.506Z,25.74
2018-09-17T11:30:44.507Z,25.69
2018-09-17T11:31:44.473Z,25.72
2018-09-17T11:32:44.466Z,25.53
2018-09-17T11:33:44.418Z,25.56
2018-09-17T11:34:46.132Z,25.50
2018-09-17T11:35:44.408Z,25.46
2018-09-17T11:36:44.442Z,25.61
2018-09-17T11:37:44.404Z,25.71
2018-09-17T11:38:46.126Z,25.68
2018-09-17T11:39:44.338Z,25.86
2018-09-17T11:40:44.317Z,25.98
2018-09-17T11:41:44.283Z,25.94
2018-09-17T11:42:44.282Z,25.98
2018-09-17T11:43:46.186Z,26.18
2018-09-17T11:44:44.226Z,26.22
2018-09-17T11:45:44.232Z,26.32
2018-09-17T11:46:46.141Z,26.40
2018-09-17T11:47:44.187Z,26.52
2018-09-17T11:48:44.153Z,26.61
2018-09-17T11:49:45.675Z,26.55
2018-09-17T11:50:44.124Z,26.61
2018-09-17T11:51:44.095Z,26.72
2018-09-17T11:52:44.080Z,26.65
2018-09-17T11:53:44.095Z,26.50
2018-09-17T11:54:47.634Z,26.35
2018-09-17T11:55:44.055Z,26.37
2018-09-17T11:56:44.003Z,26.52
2018-09-17T11:57:44.023Z,26.59
2018-09-17T11:58:45.636Z,26.65
2018-09-17T11:59:43.992Z,26.79
2018-09-17T12:00:43.970Z,26.69
2018-09-17T12:01:43.972Z,26.77
2018-09-17T12:02:43.913Z,26.83
2018-09-17T12:03:43.890Z,26.67
2018-09-17T12:04:43.868Z,26.72
2018-09-17T12:05:43.857Z,26.62
2018-09-17T12:06:45.645Z,26.61
2018-09-17T12:07:43.829Z,26.80
2018-09-17T12:08:43.801Z,26.87
2018-09-17T12:09:43.780Z,26.89
2018-09-17T12:10:43.812Z,27.04
2018-09-17T12:11:43.748Z,26.98
2018-09-17T12:12:44.733Z,26.98
2018-09-17T12:13:43.743Z,27.01
2018-09-17T12:14:43.693Z,26.96
2018-09-17T12:15:43.682Z,26.83
2018-09-17T12:16:43.667Z,26.81
2018-09-17T12:17:43.645Z,26.62
2018-09-17T12:18:43.630Z,26.50
2018-09-17T12:19:43.614Z,26.37
2018-09-17T12:20:45.136Z,26.40
2018-09-17T12:21:45.136Z,26.20
2018-09-17T12:22:43.560Z,26.21
2018-09-17T12:23:43.544Z,26.22
2018-09-17T12:24:43.523Z,26.29
2018-09-17T12:25:43.512Z,26.39
2018-09-17T12:26:43.486Z,26.31
2018-09-17T12:27:43.485Z,26.39
2018-09-17T12:28:43.459Z,26.42
2018-09-17T12:29:43.433Z,26.37
2018-09-17T12:30:43.418Z,26.36
2018-09-17T12:31:43.411Z,26.47
2018-09-17T12:32:43.396Z,26.57
2018-09-17T12:33:43.442Z,26.61
2018-09-17T12:34:43.348Z,26.68
2018-09-17T12:35:43.334Z,26.74
2018-09-17T12:36:43.313Z,26.73
2018-09-17T12:37:43.306Z,26.57
2018-09-17T12:38:43.274Z,26.62
2018-09-17T12:39:43.269Z,26.58
2018-09-17T12:40:43.240Z,26.64
2018-09-17T12:41:43.266Z,26.69
2018-09-17T12:42:45.152Z,26.89
2018-09-17T12:43:43.210Z,26.87
2018-09-17T12:44:43.201Z,26.95
2018-09-17T12:45:43.154Z,26.89
2018-09-17T12:46:43.138Z,26.98
2018-09-17T12:47:43.140Z,26.92
2018-09-17T12:48:43.100Z,26.95
2018-09-17T12:49:43.088Z,26.86
2018-09-17T12:50:43.154Z,26.77
2018-09-17T12:51:43.051Z,26.80
2018-09-17T12:52:44.659Z,26.86
2018-09-17T12:53:43.065Z,26.77
2018-09-17T12:54:43.104Z,26.81
2018-09-17T12:55:42.979Z,26.77
2018-09-17T12:56:42.966Z,26.86
2018-09-17T12:57:42.951Z,26.99
2018-09-17T12:58:42.927Z,26.98
2018-09-17T12:59:42.913Z,26.81
2018-09-17T13:00:42.899Z,26.89
2018-09-17T13:01:42.876Z,26.89
2018-09-17T13:02:42.858Z,26.92
2018-09-17T13:03:42.845Z,26.98
2018-09-17T13:04:42.827Z,26.83
2018-09-17T13:05:42.805Z,26.77